sensor_id;sensor_type;location;lat;lon;timestamp;pressure;altitude;pressure_sealevel;temperature;humidity
47524;BME280;33253;42.144;25.884;2023-03-11T00:01:22;98757.53;;;13.65;100.00
47524;BME280;33253;42.144;25.884;2023-03-11T00:03:48;98743.69;;;13.64;100.00
47524;BME280;33253;42.144;25.884;2023-03-11T00:06:13;98741.94;;;13.69;100.00
47524;BME280;33253;42.144;25.884;2023-03-11T00:08:38;98729.84;;;13.68;100.00
47524;BME280;33253;42.144;25.884;2023-03-11T00:11:05;98723.78;;;13.69;100.00
47524;BME280;33253;42.144;25.884;2023-03-11T00:13:30;98728.09;;;13.73;100.00
47524;BME280;33253;42.144;25.884;2023-03-11T00:15:56;98728.06;;;13.77;100.00
47524;BME280;33253;42.144;25.884;2023-03-11T00:18:22;98716.00;;;13.77;100.00
47524;BME280;33253;42.144;25.884;2023-03-11T00:20:51;98709.88;;;13.83;100.00
47524;BME280;33253;42.144;25.884;2023-03-11T00:23:16;98699.53;;;13.81;100.00
47524;BME280;33253;42.144;25.884;2023-03-11T00:25:42;98679.59;;;13.88;100.00
47524;BME280;33253;42.144;25.884;2023-03-11T00:28:08;98696.91;;;13.83;100.00
47524;BME280;33253;42.144;25.884;2023-03-11T00:30:35;98725.44;;;13.84;100.00
47524;BME280;33253;42.144;25.884;2023-03-11T00:33:00;98734.09;;;13.89;100.00
47524;BME280;33253;42.144;25.884;2023-03-11T00:35:27;98739.25;;;13.93;100.00
47524;BME280;33253;42.144;25.884;2023-03-11T00:37:54;98746.16;;;13.94;100.00
47524;BME280;33253;42.144;25.884;2023-03-11T00:40:21;98746.13;;;13.97;100.00
47524;BME280;33253;42.144;25.884;2023-03-11T00:42:46;98736.66;;;13.93;100.00
47524;BME280;33253;42.144;25.884;2023-03-11T00:45:12;98732.34;;;13.88;100.00
47524;BME280;33253;42.144;25.884;2023-03-11T00:47:38;98718.50;;;13.88;100.00
47524;BME280;33253;42.144;25.884;2023-03-11T00:50:27;98728.06;;;13.86;100.00
47524;BME280;33253;42.144;25.884;2023-03-11T00:52:53;98719.41;;;13.82;100.00
47524;BME280;33253;42.144;25.884;2023-03-11T00:55:23;98722.88;;;13.77;100.00
47524;BME280;33253;42.144;25.884;2023-03-11T00:57:53;98717.75;;;13.69;100.00
47524;BME280;33253;42.144;25.884;2023-03-11T01:00:18;98713.44;;;13.65;100.00
47524;BME280;33253;42.144;25.884;2023-03-11T01:02:44;98709.97;;;13.66;100.00
47524;BME280;33253;42.144;25.884;2023-03-11T01:05:10;98704.81;;;13.61;100.00
47524;BME280;33253;42.144;25.884;2023-03-11T01:07:35;98700.50;;;13.58;100.00
47524;BME280;33253;42.144;25.884;2023-03-11T01:10:01;98683.22;;;13.56;100.00
47524;BME280;33253;42.144;25.884;2023-03-11T01:12:26;98676.34;;;13.49;100.00
47524;BME280;33253;42.144;25.884;2023-03-11T01:14:52;98670.31;;;13.36;100.00
47524;BME280;33253;42.144;25.884;2023-03-11T01:17:17;98659.09;;;13.27;100.00
47524;BME280;33253;42.144;25.884;2023-03-11T01:19:42;98660.00;;;13.17;100.00
47524;BME280;33253;42.144;25.884;2023-03-11T01:22:09;98653.13;;;13.08;100.00
47524;BME280;33253;42.144;25.884;2023-03-11T01:24:34;98647.06;;;13.02;100.00
47524;BME280;33253;42.144;25.884;2023-03-11T01:27:00;98638.44;;;12.98;100.00
47524;BME280;33253;42.144;25.884;2023-03-11T01:29:25;98631.53;;;12.95;100.00
47524;BME280;33253;42.144;25.884;2023-03-11T01:31:50;98635.00;;;12.96;100.00
47524;BME280;33253;42.144;25.884;2023-03-11T01:34:15;98635.00;;;12.93;100.00
47524;BME280;33253;42.144;25.884;2023-03-11T01:36:41;98637.59;;;12.88;100.00
47524;BME280;33253;42.144;25.884;2023-03-11T01:39:06;98639.34;;;12.92;100.00
47524;BME280;33253;42.144;25.884;2023-03-11T01:41:31;98620.31;;;12.97;100.00
47524;BME280;33253;42.144;25.884;2023-03-11T01:43:57;98602.19;;;13.01;100.00
47524;BME280;33253;42.144;25.884;2023-03-11T01:46:26;98602.16;;;13.04;100.00
47524;BME280;33253;42.144;25.884;2023-03-11T01:48:56;98595.22;;;13.14;100.00
47524;BME280;33253;42.144;25.884;2023-03-11T01:51:23;98589.13;;;13.24;100.00
47524;BME280;33253;42.144;25.884;2023-03-11T01:53:51;98590.84;;;13.29;100.00
47524;BME280;33253;42.144;25.884;2023-03-11T01:56:16;98593.44;;;13.30;100.00
47524;BME280;33253;42.144;25.884;2023-03-11T01:58:43;98595.16;;;13.31;100.00
47524;BME280;33253;42.144;25.884;2023-03-11T02:01:11;98585.66;;;13.30;100.00
47524;BME280;33253;42.144;25.884;2023-03-11T02:03:37;98602.06;;;13.29;100.00
47524;BME280;33253;42.144;25.884;2023-03-11T02:06:05;98598.59;;;13.27;100.00
47524;BME280;33253;42.144;25.884;2023-03-11T02:08:31;98611.59;;;13.25;100.00
47524;BME280;33253;42.144;25.884;2023-03-11T02:11:00;98609.88;;;13.23;100.00
47524;BME280;33253;42.144;25.884;2023-03-11T02:13:26;98590.88;;;13.19;100.00
47524;BME280;33253;42.144;25.884;2023-03-11T02:15:51;98577.94;;;13.18;100.00
47524;BME280;33253;42.144;25.884;2023-03-11T02:18:17;98583.13;;;13.11;100.00
47524;BME280;33253;42.144;25.884;2023-03-11T02:23:18;98596.94;;;13.12;100.00
47524;BME280;33253;42.144;25.884;2023-03-11T02:28:30;98613.34;;;13.20;100.00
47524;BME280;33253;42.144;25.884;2023-03-11T02:30:56;98611.59;;;13.24;100.00
47524;BME280;33253;42.144;25.884;2023-03-11T02:33:22;98609.00;;;13.24;100.00
47524;BME280;33253;42.144;25.884;2023-03-11T02:35:48;98608.97;;;13.27;100.00
47524;BME280;33253;42.144;25.884;2023-03-11T02:38:15;98608.09;;;13.34;100.00
47524;BME280;33253;42.144;25.884;2023-03-11T02:40:43;98606.38;;;13.36;100.00
47524;BME280;33253;42.144;25.884;2023-03-11T02:43:12;98603.78;;;13.42;100.00
47524;BME280;33253;42.144;25.884;2023-03-11T02:45:39;98605.50;;;13.43;100.00
47524;BME280;33253;42.144;25.884;2023-03-11T02:48:06;98596.88;;;13.41;100.00
47524;BME280;33253;42.144;25.884;2023-03-11T02:50:32;98603.78;;;13.38;100.00
47524;BME280;33253;42.144;25.884;2023-03-11T02:53:01;98576.13;;;13.34;100.00
47524;BME280;33253;42.144;25.884;2023-03-11T02:55:26;98572.72;;;13.29;100.00
47524;BME280;33253;42.144;25.884;2023-03-11T02:57:51;98567.56;;;13.21;100.00
47524;BME280;33253;42.144;25.884;2023-03-11T03:00:17;98571.00;;;13.21;100.00
47524;BME280;33253;42.144;25.884;2023-03-11T03:02:43;98565.81;;;13.21;100.00
47524;BME280;33253;42.144;25.884;2023-03-11T03:05:08;98557.19;;;13.19;100.00
47524;BME280;33253;42.144;25.884;2023-03-11T03:07:34;98552.03;;;13.18;100.00
47524;BME280;33253;42.144;25.884;2023-03-11T03:09:59;98566.69;;;13.20;100.00
47524;BME280;33253;42.144;25.884;2023-03-11T03:12:24;98562.34;;;13.27;100.00
47524;BME280;33253;42.144;25.884;2023-03-11T03:14:50;98558.88;;;13.28;100.00
47524;BME280;33253;42.144;25.884;2023-03-11T03:17:15;98554.56;;;13.30;100.00
47524;BME280;33253;42.144;25.884;2023-03-11T03:19:41;98550.25;;;13.32;100.00
47524;BME280;33253;42.144;25.884;2023-03-11T03:22:06;98560.56;;;13.35;100.00
47524;BME280;33253;42.144;25.884;2023-03-11T03:24:31;98551.09;;;13.39;100.00
47524;BME280;33253;42.144;25.884;2023-03-11T03:26:57;98548.50;;;13.39;100.00
47524;BME280;33253;42.144;25.884;2023-03-11T03:29:22;98545.91;;;13.37;100.00
47524;BME280;33253;42.144;25.884;2023-03-11T03:31:48;98547.66;;;13.32;100.00
47524;BME280;33253;42.144;25.884;2023-03-11T03:34:13;98557.16;;;13.30;100.00
47524;BME280;33253;42.144;25.884;2023-03-11T03:36:38;98538.19;;;13.22;100.00
47524;BME280;33253;42.144;25.884;2023-03-11T03:39:04;98544.28;;;13.15;100.00
47524;BME280;33253;42.144;25.884;2023-03-11T03:41:29;98551.22;;;13.05;100.00
47524;BME280;33253;42.144;25.884;2023-03-11T03:43:54;98553.81;;;13.00;100.00
47524;BME280;33253;42.144;25.884;2023-03-11T03:46:20;98549.53;;;12.96;100.00
47524;BME280;33253;42.144;25.884;2023-03-11T03:48:45;98538.31;;;12.91;100.00
47524;BME280;33253;42.144;25.884;2023-03-11T03:51:11;98538.34;;;12.86;100.00
47524;BME280;33253;42.144;25.884;2023-03-11T03:53:36;98533.19;;;12.75;100.00
47524;BME280;33253;42.144;25.884;2023-03-11T03:56:02;98528.03;;;12.65;100.00
47524;BME280;33253;42.144;25.884;2023-03-11T03:58:28;98517.72;;;12.55;100.00
47524;BME280;33253;42.144;25.884;2023-03-11T04:00:57;98517.72;;;12.49;100.00
47524;BME280;33253;42.144;25.884;2023-03-11T04:03:23;98514.28;;;12.44;100.00
47524;BME280;33253;42.144;25.884;2023-03-11T04:05:48;98516.00;;;12.37;100.00
47524;BME280;33253;42.144;25.884;2023-03-11T04:08:13;98512.56;;;12.38;100.00
47524;BME280;33253;42.144;25.884;2023-03-11T04:10:38;98509.13;;;12.36;100.00
47524;BME280;33253;42.144;25.884;2023-03-11T04:13:04;98506.53;;;12.28;100.00
47524;BME280;33253;42.144;25.884;2023-03-11T04:15:29;98496.22;;;12.25;100.00
47524;BME280;33253;42.144;25.884;2023-03-11T04:17:54;98487.56;;;12.25;100.00
47524;BME280;33253;42.144;25.884;2023-03-11T04:20:20;98478.09;;;12.30;100.00
47524;BME280;33253;42.144;25.884;2023-03-11T04:22:45;98478.97;;;12.29;100.00
47524;BME280;33253;42.144;25.884;2023-03-11T04:25:10;98484.13;;;12.32;100.00
47524;BME280;33253;42.144;25.884;2023-03-11T04:27:35;98482.38;;;12.31;100.00
47524;BME280;33253;42.144;25.884;2023-03-11T04:30:02;98476.38;;;12.29;100.00
47524;BME280;33253;42.144;25.884;2023-03-11T04:32:28;98470.34;;;12.27;100.00
47524;BME280;33253;42.144;25.884;2023-03-11T04:34:53;98460.84;;;12.26;100.00
47524;BME280;33253;42.144;25.884;2023-03-11T04:37:18;98463.44;;;12.20;100.00
47524;BME280;33253;42.144;25.884;2023-03-11T04:39:43;98464.31;;;12.22;100.00
47524;BME280;33253;42.144;25.884;2023-03-11T04:42:09;98466.03;;;12.29;100.00
47524;BME280;33253;42.144;25.884;2023-03-11T04:44:34;98469.44;;;12.36;100.00
47524;BME280;33253;42.144;25.884;2023-03-11T04:47:00;98478.06;;;12.45;100.00
47524;BME280;33253;42.144;25.884;2023-03-11T04:49:25;98469.41;;;12.48;100.00
47524;BME280;33253;42.144;25.884;2023-03-11T04:51:50;98474.56;;;12.54;100.00
47524;BME280;33253;42.144;25.884;2023-03-11T04:54:16;98466.81;;;12.57;100.00
47524;BME280;33253;42.144;25.884;2023-03-11T04:56:41;98462.47;;;12.58;100.00
47524;BME280;33253;42.144;25.884;2023-03-11T04:59:06;98459.88;;;12.61;100.00
47524;BME280;33253;42.144;25.884;2023-03-11T05:01:32;98465.88;;;12.71;100.00
47524;BME280;33253;42.144;25.884;2023-03-11T05:03:57;98467.59;;;12.76;100.00
47524;BME280;33253;42.144;25.884;2023-03-11T05:06:22;98477.94;;;12.83;100.00
47524;BME280;33253;42.144;25.884;2023-03-11T05:08:47;98482.16;;;12.94;100.00
47524;BME280;33253;42.144;25.884;2023-03-11T05:11:13;98491.66;;;12.97;100.00
47524;BME280;33253;42.144;25.884;2023-03-11T05:13:38;98487.31;;;13.01;100.00
47524;BME280;33253;42.144;25.884;2023-03-11T05:16:03;98487.31;;;13.05;100.00
47524;BME280;33253;42.144;25.884;2023-03-11T05:18:29;98483.81;;;13.14;100.00
47524;BME280;33253;42.144;25.884;2023-03-11T05:23:59;98491.50;;;13.28;100.00
47524;BME280;33253;42.144;25.884;2023-03-11T05:26:24;98494.94;;;13.30;100.00
47524;BME280;33253;42.144;25.884;2023-03-11T05:28:49;98507.03;;;13.37;100.00
47524;BME280;33253;42.144;25.884;2023-03-11T05:31:14;98510.47;;;13.39;100.00
47524;BME280;33253;42.144;25.884;2023-03-11T05:33:40;98507.84;;;13.46;100.00
47524;BME280;33253;42.144;25.884;2023-03-11T05:36:05;98506.09;;;13.51;100.00
47524;BME280;33253;42.144;25.884;2023-03-11T05:38:32;98517.28;;;13.56;100.00
47524;BME280;33253;42.144;25.884;2023-03-11T05:40:57;98519.88;;;13.54;100.00
47524;BME280;33253;42.144;25.884;2023-03-11T05:43:22;98519.88;;;13.57;100.00
47524;BME280;33253;42.144;25.884;2023-03-11T05:45:48;98526.78;;;13.55;100.00
47524;BME280;33253;42.144;25.884;2023-03-11T05:48:13;98520.75;;;13.56;100.00
47524;BME280;33253;42.144;25.884;2023-03-11T05:50:38;98536.31;;;13.53;100.00
47524;BME280;33253;42.144;25.884;2023-03-11T05:53:04;98535.47;;;13.50;100.00
47524;BME280;33253;42.144;25.884;2023-03-11T05:55:29;98544.09;;;13.50;100.00
47524;BME280;33253;42.144;25.884;2023-03-11T05:57:54;98540.63;;;13.53;100.00
47524;BME280;33253;42.144;25.884;2023-03-11T06:00:20;98547.53;;;13.54;100.00
47524;BME280;33253;42.144;25.884;2023-03-11T06:02:45;98549.28;;;13.50;100.00
47524;BME280;33253;42.144;25.884;2023-03-11T06:05:10;98557.06;;;13.55;100.00
47524;BME280;33253;42.144;25.884;2023-03-11T06:07:36;98559.59;;;13.61;100.00
47524;BME280;33253;42.144;25.884;2023-03-11T06:10:01;98565.59;;;13.68;100.00
47524;BME280;33253;42.144;25.884;2023-03-11T06:12:27;98569.16;;;13.56;100.00
47524;BME280;33253;42.144;25.884;2023-03-11T06:14:52;98567.50;;;13.42;100.00
47524;BME280;33253;42.144;25.884;2023-03-11T06:17:18;98566.72;;;13.14;100.00
47524;BME280;33253;42.144;25.884;2023-03-11T06:19:43;98569.34;;;13.02;100.00
47524;BME280;33253;42.144;25.884;2023-03-11T06:22:08;98572.84;;;12.91;100.00
47524;BME280;33253;42.144;25.884;2023-03-11T06:24:34;98572.03;;;12.75;100.00
47524;BME280;33253;42.144;25.884;2023-03-11T06:26:59;98572.94;;;12.50;100.00
47524;BME280;33253;42.144;25.884;2023-03-11T06:29:24;98552.28;;;12.33;100.00
47524;BME280;33253;42.144;25.884;2023-03-11T06:31:50;98558.31;;;12.18;100.00
47524;BME280;33253;42.144;25.884;2023-03-11T06:34:15;98545.38;;;12.27;100.00
47524;BME280;33253;42.144;25.884;2023-03-11T06:36:41;98541.91;;;12.31;100.00
47524;BME280;33253;42.144;25.884;2023-03-11T06:39:06;98537.59;;;12.25;100.00
47524;BME280;33253;42.144;25.884;2023-03-11T06:41:32;98534.16;;;12.20;100.00
47524;BME280;33253;42.144;25.884;2023-03-11T06:43:58;98516.94;;;12.18;100.00
47524;BME280;33253;42.144;25.884;2023-03-11T06:46:23;98507.44;;;12.27;100.00
47524;BME280;33253;42.144;25.884;2023-03-11T06:48:49;98491.03;;;12.22;100.00
47524;BME280;33253;42.144;25.884;2023-03-11T06:51:18;98478.94;;;12.32;100.00
47524;BME280;33253;42.144;25.884;2023-03-11T06:53:43;98469.38;;;12.59;100.00
47524;BME280;33253;42.144;25.884;2023-03-11T06:56:10;98458.91;;;12.88;100.00
47524;BME280;33253;42.144;25.884;2023-03-11T06:58:36;98457.09;;;13.04;100.00
47524;BME280;33253;42.144;25.884;2023-03-11T07:01:05;98451.72;;;13.35;100.00
47524;BME280;33253;42.144;25.884;2023-03-11T07:03:31;98448.97;;;13.62;100.00
47524;BME280;33253;42.144;25.884;2023-03-11T07:05:56;98444.56;;;13.74;100.00
47524;BME280;33253;42.144;25.884;2023-03-11T07:08:22;98448.75;;;13.86;100.00
47524;BME280;33253;42.144;25.884;2023-03-11T07:10:58;98440.03;;;13.98;100.00
47524;BME280;33253;42.144;25.884;2023-03-11T07:13:25;98457.34;;;13.95;100.00
47524;BME280;33253;42.144;25.884;2023-03-11T07:15:58;98469.50;;;13.89;100.00
47524;BME280;33253;42.144;25.884;2023-03-11T07:18:23;98469.50;;;13.88;100.00
47524;BME280;33253;42.144;25.884;2023-03-11T07:20:48;98480.75;;;13.87;100.00
47524;BME280;33253;42.144;25.884;2023-03-11T07:23:13;98470.31;;;13.93;100.00
47524;BME280;33253;42.144;25.884;2023-03-11T07:25:44;98471.09;;;14.01;100.00
47524;BME280;33253;42.144;25.884;2023-03-11T07:28:09;98473.63;;;14.09;100.00
47524;BME280;33253;42.144;25.884;2023-03-11T07:30:34;98474.38;;;14.22;100.00
47524;BME280;33253;42.144;25.884;2023-03-11T07:33:02;98463.94;;;14.28;100.00
47524;BME280;33253;42.144;25.884;2023-03-11T07:35:27;98463.84;;;14.37;100.00
47524;BME280;33253;42.144;25.884;2023-03-11T07:37:52;98464.38;;;14.67;100.00
47524;BME280;33253;42.144;25.884;2023-03-11T07:40:18;98465.25;;;14.68;100.00
47524;BME280;33253;42.144;25.884;2023-03-11T07:42:43;98476.50;;;14.68;100.00
47524;BME280;33253;42.144;25.884;2023-03-11T07:45:08;98487.03;;;14.54;100.00
47524;BME280;33253;42.144;25.884;2023-03-11T07:47:35;98508.53;;;14.67;100.00
47524;BME280;33253;42.144;25.884;2023-03-11T07:50:00;98515.47;;;14.64;100.00
47524;BME280;33253;42.144;25.884;2023-03-11T07:52:28;98513.78;;;14.61;100.00
47524;BME280;33253;42.144;25.884;2023-03-11T07:54:53;98525.84;;;14.64;100.00
47524;BME280;33253;42.144;25.884;2023-03-11T07:57:19;98536.25;;;14.68;100.00
47524;BME280;33253;42.144;25.884;2023-03-11T07:59:44;98536.31;;;14.57;100.00
47524;BME280;33253;42.144;25.884;2023-03-11T08:02:10;98539.72;;;14.64;100.00
47524;BME280;33253;42.144;25.884;2023-03-11T08:04:35;98543.19;;;14.68;100.00
47524;BME280;33253;42.144;25.884;2023-03-11T08:07:01;98539.78;;;14.56;100.00
47524;BME280;33253;42.144;25.884;2023-03-11T08:09:26;98528.50;;;14.59;100.00
47524;BME280;33253;42.144;25.884;2023-03-11T08:11:51;98519.72;;;14.72;100.00
47524;BME280;33253;42.144;25.884;2023-03-11T08:14:17;98521.47;;;14.74;99.95
47524;BME280;33253;42.144;25.884;2023-03-11T08:16:42;98530.94;;;14.76;100.00
47524;BME280;33253;42.144;25.884;2023-03-11T08:19:09;98520.53;;;14.79;100.00
47524;BME280;33253;42.144;25.884;2023-03-11T08:21:35;98517.91;;;14.81;100.00
47524;BME280;33253;42.144;25.884;2023-03-11T08:24:00;98518.69;;;14.87;100.00
47524;BME280;33253;42.144;25.884;2023-03-11T08:26:26;98524.88;;;14.77;100.00
47524;BME280;33253;42.144;25.884;2023-03-11T08:28:51;98524.81;;;14.83;100.00
47524;BME280;33253;42.144;25.884;2023-03-11T08:31:18;98527.44;;;14.80;100.00
47524;BME280;33253;42.144;25.884;2023-03-11T08:33:44;98524.84;;;14.80;100.00
47524;BME280;33253;42.144;25.884;2023-03-11T08:36:10;98514.44;;;14.83;100.00
47524;BME280;33253;42.144;25.884;2023-03-11T08:38:36;98521.25;;;14.92;100.00
47524;BME280;33253;42.144;25.884;2023-03-11T08:41:01;98521.91;;;15.08;97.69
47524;BME280;33253;42.144;25.884;2023-03-11T08:43:26;98521.13;;;15.01;97.45
47524;BME280;33253;42.144;25.884;2023-03-11T08:45:52;98508.97;;;15.03;97.16
47524;BME280;33253;42.144;25.884;2023-03-11T08:48:17;98507.25;;;15.02;96.54
47524;BME280;33253;42.144;25.884;2023-03-11T08:50:42;98497.56;;;15.15;98.03
47524;BME280;33253;42.144;25.884;2023-03-11T08:53:08;98508.81;;;15.16;97.44
47524;BME280;33253;42.144;25.884;2023-03-11T08:55:34;98494.78;;;15.29;96.34
47524;BME280;33253;42.144;25.884;2023-03-11T08:57:59;98498.00;;;15.47;95.72
47524;BME280;33253;42.144;25.884;2023-03-11T09:00:24;98482.44;;;15.42;93.50
47524;BME280;33253;42.144;25.884;2023-03-11T09:02:50;98483.28;;;15.46;94.08
47524;BME280;33253;42.144;25.884;2023-03-11T09:05:15;98472.00;;;15.47;93.17
47524;BME280;33253;42.144;25.884;2023-03-11T09:07:40;98468.31;;;15.60;93.79
47524;BME280;33253;42.144;25.884;2023-03-11T09:10:06;98457.63;;;15.79;94.95
47524;BME280;33253;42.144;25.884;2023-03-11T09:12:32;98448.91;;;15.83;93.02
47524;BME280;33253;42.144;25.884;2023-03-11T09:14:57;98447.22;;;15.79;93.68
47524;BME280;33253;42.144;25.884;2023-03-11T09:17:23;98447.06;;;15.88;93.18
47524;BME280;33253;42.144;25.884;2023-03-11T09:19:49;98445.78;;;16.12;91.98
47524;BME280;33253;42.144;25.884;2023-03-11T09:22:14;98444.13;;;16.08;92.49
47524;BME280;33253;42.144;25.884;2023-03-11T09:24:39;98436.22;;;16.13;89.83
47524;BME280;33253;42.144;25.884;2023-03-11T09:27:04;98449.09;;;16.21;87.69
47524;BME280;33253;42.144;25.884;2023-03-11T09:29:30;98438.06;;;16.08;87.76
47524;BME280;33253;42.144;25.884;2023-03-11T09:31:57;98432.72;;;16.15;90.35
47524;BME280;33253;42.144;25.884;2023-03-11T09:34:23;98437.69;;;16.28;86.82
47524;BME280;33253;42.144;25.884;2023-03-11T09:36:48;98432.63;;;16.20;82.27
47524;BME280;33253;42.144;25.884;2023-03-11T09:39:13;98435.06;;;16.29;83.83
47524;BME280;33253;42.144;25.884;2023-03-11T09:44:21;98438.66;;;16.24;84.70
47524;BME280;33253;42.144;25.884;2023-03-11T09:51:40;98419.25;;;16.39;83.66
47524;BME280;33253;42.144;25.884;2023-03-11T09:54:10;98408.94;;;16.34;84.73
47524;BME280;33253;42.144;25.884;2023-03-11T09:56:35;98412.72;;;16.16;85.79
47524;BME280;33253;42.144;25.884;2023-03-11T09:59:14;98400.31;;;16.30;86.10
47524;BME280;33253;42.144;25.884;2023-03-11T10:01:41;98402.59;;;16.46;86.05
47524;BME280;33253;42.144;25.884;2023-03-11T10:04:25;98403.22;;;16.59;86.24
47524;BME280;33253;42.144;25.884;2023-03-11T10:06:52;98398.31;;;16.45;87.85
47524;BME280;33253;42.144;25.884;2023-03-11T10:09:28;98400.03;;;16.44;85.76
47524;BME280;33253;42.144;25.884;2023-03-11T10:20:10;98391.50;;;16.80;85.20
47524;BME280;33253;42.144;25.884;2023-03-11T10:22:51;98390.66;;;16.78;82.74
47524;BME280;33253;42.144;25.884;2023-03-11T10:25:24;98394.97;;;16.79;83.14
47524;BME280;33253;42.144;25.884;2023-03-11T10:27:51;98402.06;;;16.74;82.98
47524;BME280;33253;42.144;25.884;2023-03-11T10:35:37;98392.06;;;16.94;82.60
47524;BME280;33253;42.144;25.884;2023-03-11T10:38:17;98398.91;;;17.00;82.48
47524;BME280;33253;42.144;25.884;2023-03-11T10:40:44;98383.31;;;16.98;83.12
47524;BME280;33253;42.144;25.884;2023-03-11T10:46:08;98384.75;;;17.10;81.75
47524;BME280;33253;42.144;25.884;2023-03-11T10:48:37;98394.06;;;17.21;79.72
47524;BME280;33253;42.144;25.884;2023-03-11T10:53:28;98391.63;;;17.13;79.28
47524;BME280;33253;42.144;25.884;2023-03-11T10:55:55;98383.47;;;17.28;79.31
47524;BME280;33253;42.144;25.884;2023-03-11T10:58:22;98392.47;;;17.15;77.27
47524;BME280;33253;42.144;25.884;2023-03-11T11:03:28;98374.81;;;17.26;78.21
47524;BME280;33253;42.144;25.884;2023-03-11T11:06:04;98388.84;;;17.22;76.51
47524;BME280;33253;42.144;25.884;2023-03-11T11:08:30;98372.59;;;17.45;77.37
47524;BME280;33253;42.144;25.884;2023-03-11T11:10:56;98376.44;;;17.67;74.33
47524;BME280;33253;42.144;25.884;2023-03-11T11:13:23;98364.72;;;17.83;73.16
47524;BME280;33253;42.144;25.884;2023-03-11T11:15:55;98361.13;;;17.87;73.47
47524;BME280;33253;42.144;25.884;2023-03-11T11:18:23;98360.09;;;17.93;72.65
47524;BME280;33253;42.144;25.884;2023-03-11T11:21:07;98357.63;;;17.87;73.28
47524;BME280;33253;42.144;25.884;2023-03-11T11:26:29;98354.72;;;17.99;72.08
47524;BME280;33253;42.144;25.884;2023-03-11T11:31:34;98349.38;;;18.35;69.75
47524;BME280;33253;42.144;25.884;2023-03-11T11:33:59;98334.38;;;18.72;67.68
47524;BME280;33253;42.144;25.884;2023-03-11T11:36:28;98341.38;;;18.70;66.59
47524;BME280;33253;42.144;25.884;2023-03-11T11:38:56;98336.84;;;18.47;66.46
47524;BME280;33253;42.144;25.884;2023-03-11T11:41:23;98331.84;;;18.39;65.43
47524;BME280;33253;42.144;25.884;2023-03-11T11:43:50;98335.13;;;18.75;64.82
47524;BME280;33253;42.144;25.884;2023-03-11T11:51:41;98320.66;;;18.94;62.99
47524;BME280;33253;42.144;25.884;2023-03-11T11:54:13;98333.47;;;19.01;62.14
47524;BME280;33253;42.144;25.884;2023-03-11T11:56:41;98334.31;;;18.73;62.16
47524;BME280;33253;42.144;25.884;2023-03-11T11:59:17;98338.44;;;18.52;61.05
47524;BME280;33253;42.144;25.884;2023-03-11T12:06:56;98324.59;;;18.49;62.80
47524;BME280;33253;42.144;25.884;2023-03-11T12:12:00;98343.16;;;18.09;61.20
47524;BME280;33253;42.144;25.884;2023-03-11T12:14:32;98343.34;;;18.02;61.85
47524;BME280;33253;42.144;25.884;2023-03-11T12:17:01;98344.00;;;18.10;62.40
47524;BME280;33253;42.144;25.884;2023-03-11T12:22:16;98323.25;;;18.94;60.37
47524;BME280;33253;42.144;25.884;2023-03-11T12:29:42;98303.84;;;18.72;60.93
47524;BME280;33253;42.144;25.884;2023-03-11T12:32:20;98325.59;;;19.30;56.81
47524;BME280;33253;42.144;25.884;2023-03-11T12:34:46;98335.88;;;19.09;53.54
47524;BME280;33253;42.144;25.884;2023-03-11T12:37:12;98331.22;;;18.89;50.69
47524;BME280;33253;42.144;25.884;2023-03-11T12:39:38;98335.09;;;19.05;51.65
47524;BME280;33253;42.144;25.884;2023-03-11T12:44:35;98344.78;;;18.43;50.70
47524;BME280;33253;42.144;25.884;2023-03-11T12:49:37;98339.59;;;18.12;51.59
47524;BME280;33253;42.144;25.884;2023-03-11T12:54:43;98351.06;;;18.06;51.93
47524;BME280;33253;42.144;25.884;2023-03-11T12:59:48;98359.97;;;17.65;64.03
47524;BME280;33253;42.144;25.884;2023-03-11T13:10:16;98363.19;;;17.40;71.50
47524;BME280;33253;42.144;25.884;2023-03-11T13:12:43;98362.22;;;17.44;71.56
47524;BME280;33253;42.144;25.884;2023-03-11T13:38:32;98355.59;;;18.00;66.76
47524;BME280;33253;42.144;25.884;2023-03-11T13:40:59;98348.31;;;18.11;65.88
47524;BME280;33253;42.144;25.884;2023-03-11T13:43:25;98351.50;;;18.22;63.60
47524;BME280;33253;42.144;25.884;2023-03-11T13:45:58;98359.97;;;18.31;64.06
47524;BME280;33253;42.144;25.884;2023-03-11T13:53:46;98362.34;;;18.38;63.85
47524;BME280;33253;42.144;25.884;2023-03-11T13:56:17;98371.91;;;18.39;64.04
47524;BME280;33253;42.144;25.884;2023-03-11T13:58:46;98366.47;;;18.47;63.24
47524;BME280;33253;42.144;25.884;2023-03-11T14:01:15;98376.91;;;18.47;62.26
47524;BME280;33253;42.144;25.884;2023-03-11T14:03:45;98377.94;;;18.41;61.65
47524;BME280;33253;42.144;25.884;2023-03-11T14:06:12;98388.25;;;18.46;62.81
47524;BME280;33253;42.144;25.884;2023-03-11T14:08:38;98378.69;;;18.45;62.25
47524;BME280;33253;42.144;25.884;2023-03-11T14:13:36;98383.84;;;18.48;60.46
47524;BME280;33253;42.144;25.884;2023-03-11T14:18:40;98404.91;;;18.10;62.38
47524;BME280;33253;42.144;25.884;2023-03-11T14:21:10;98410.91;;;17.79;63.82
47524;BME280;33253;42.144;25.884;2023-03-11T14:23:45;98412.97;;;17.67;63.14
47524;BME280;33253;42.144;25.884;2023-03-11T14:26:12;98424.44;;;17.59;66.74
47524;BME280;33253;42.144;25.884;2023-03-11T14:28:39;98425.72;;;17.43;67.56
47524;BME280;33253;42.144;25.884;2023-03-11T14:31:05;98413.97;;;17.25;68.74
47524;BME280;33253;42.144;25.884;2023-03-11T14:33:30;98414.22;;;17.14;69.49
47524;BME280;33253;42.144;25.884;2023-03-11T14:35:57;98412.63;;;17.07;69.83